createdAt,value
2023-04-26T00:04:29.083Z,101932.13
2023-04-26T00:09:31.668Z,101921.91
2023-04-26T00:14:34.046Z,101927.91
2023-04-26T00:19:35.569Z,101930.19
2023-04-26T00:24:37.151Z,101931.25
2023-04-26T00:29:38.797Z,101924.00
2023-04-26T00:34:40.437Z,101932.66
2023-04-26T00:39:41.976Z,101919.63
2023-04-26T00:44:43.442Z,101918.75
2023-04-26T00:49:45.130Z,101909.34
2023-04-26T00:54:48.730Z,101905.53
2023-04-26T00:59:50.185Z,101903.66
2023-04-26T01:04:52.120Z,101907.28
2023-04-26T01:09:54.613Z,101912.53
2023-04-26T01:14:57.403Z,101908.03
2023-04-26T01:19:58.913Z,101921.81
2023-04-26T01:25:04.412Z,101918.03
2023-04-26T01:30:09.730Z,101914.63
2023-04-26T01:35:11.438Z,101921.25
2023-04-26T01:40:13.856Z,101928.63
2023-04-26T01:45:15.596Z,101929.47
2023-04-26T01:50:35.773Z,101923.19
2023-04-26T01:55:37.252Z,101914.47
2023-04-26T02:00:38.717Z,101918.69
2023-04-26T02:05:40.608Z,101922.91
2023-04-26T02:10:42.110Z,101922.38
2023-04-26T02:15:46.846Z,101918.69
2023-04-26T02:20:48.366Z,101918.81
2023-04-26T02:25:49.872Z,101919.16
2023-04-26T02:30:51.859Z,101922.66
2023-04-26T02:35:53.589Z,101928.44
2023-04-26T02:40:59.605Z,101925.97
2023-04-26T02:46:01.386Z,101922.91
2023-04-26T02:51:03.697Z,101934.44
2023-04-26T02:56:06.150Z,101929.81
2023-04-26T03:01:08.834Z,101921.22
2023-04-26T03:06:10.330Z,101918.84
2023-04-26T03:11:12.049Z,101929.28
2023-04-26T03:16:13.855Z,101931.78
2023-04-26T03:21:15.519Z,101925.72
2023-04-26T03:26:17.264Z,101928.25
2023-04-26T03:31:20.188Z,101928.47
2023-04-26T03:36:22.289Z,101911.88
2023-04-26T03:41:24.673Z,101908.66
2023-04-26T03:46:28.273Z,101905.66
2023-04-26T03:51:29.878Z,101912.47
2023-04-26T03:56:31.472Z,101899.38
2023-04-26T04:01:34.038Z,101902.56
2023-04-26T04:06:35.652Z,101891.75
2023-04-26T04:11:37.238Z,101899.25
2023-04-26T04:16:38.764Z,101895.41
2023-04-26T04:21:40.753Z,101903.69
2023-04-26T04:26:42.981Z,101916.34
2023-04-26T04:31:44.736Z,101908.19
2023-04-26T04:36:46.327Z,101916.94
2023-04-26T04:41:48.715Z,101921.75
2023-04-26T04:46:52.554Z,101919.56
2023-04-26T04:51:54.942Z,101917.28
2023-04-26T04:56:57.933Z,101922.75
2023-04-26T05:01:59.515Z,101926.16
2023-04-26T05:07:02.052Z,101917.09
2023-04-26T05:12:04.299Z,101922.06
2023-04-26T05:17:06.495Z,101923.25
2023-04-26T05:22:08.410Z,101920.06
2023-04-26T05:27:10.652Z,101927.44
2023-04-26T05:32:27.488Z,101926.81
2023-04-26T05:37:51.826Z,101926.63
2023-04-26T05:42:57.335Z,101933.41
2023-04-26T05:48:01.037Z,101939.00
2023-04-26T05:53:02.605Z,101939.97
2023-04-26T05:58:05.104Z,101947.06
2023-04-26T06:03:06.775Z,101946.81
2023-04-26T06:08:08.985Z,101953.16
2023-04-26T06:13:10.585Z,101954.06
2023-04-26T06:18:12.865Z,101945.91
2023-04-26T06:23:14.360Z,101942.38
2023-04-26T06:28:15.810Z,101952.22
2023-04-26T06:33:17.738Z,101955.63
2023-04-26T06:38:19.424Z,101953.88
2023-04-26T06:43:21.376Z,101954.19
2023-04-26T06:48:32.003Z,101951.63
2023-04-26T06:53:33.719Z,101942.75
2023-04-26T06:58:35.212Z,101940.06
2023-04-26T07:03:36.851Z,101937.03
2023-04-26T07:08:38.592Z,101945.03
2023-04-26T07:13:40.077Z,101942.91
2023-04-26T07:18:41.669Z,101948.44
2023-04-26T07:23:43.150Z,101955.47
2023-04-26T07:28:44.659Z,101952.47
2023-04-26T07:33:46.158Z,101946.53
2023-04-26T07:38:47.668Z,101957.44
2023-04-26T07:43:49.145Z,101947.91
2023-04-26T07:48:50.736Z,101954.63
2023-04-26T07:53:52.395Z,101945.69
2023-04-26T07:58:54.118Z,101951.78
2023-04-26T08:03:55.982Z,101953.34
2023-04-26T08:08:57.806Z,101944.66
2023-04-26T08:13:59.328Z,101944.53
2023-04-26T08:19:02.922Z,101939.00
2023-04-26T08:24:04.738Z,101950.50
2023-04-26T08:29:06.576Z,101948.09
2023-04-26T08:34:14.032Z,101968.00
2023-04-26T08:39:17.887Z,101965.44
2023-04-26T08:44:26.012Z,101972.25
2023-04-26T08:49:35.455Z,101983.06
2023-04-26T08:54:38.245Z,101974.84
2023-04-26T08:59:40.081Z,101969.25
2023-04-26T09:04:41.879Z,101975.34
2023-04-26T09:09:47.689Z,101966.47
2023-04-26T09:14:49.558Z,101961.72
2023-04-26T09:19:51.042Z,101957.38
2023-04-26T09:24:52.500Z,101961.97
2023-04-26T09:29:59.781Z,101957.34
2023-04-26T09:35:01.282Z,101944.34
2023-04-26T09:40:02.867Z,101941.75
2023-04-26T09:45:07.539Z,101939.78
2023-04-26T09:50:09.188Z,101948.03
2023-04-26T09:55:14.366Z,101939.69
2023-04-26T10:00:21.126Z,101934.97
2023-04-26T10:05:23.170Z,101925.22
2023-04-26T10:10:24.695Z,101935.72
2023-04-26T10:15:26.415Z,101923.66
2023-04-26T10:20:29.464Z,101925.94
2023-04-26T10:25:38.823Z,101935.78
2023-04-26T10:30:57.661Z,101937.97
2023-04-26T10:36:01.545Z,101918.41
2023-04-26T10:41:32.160Z,101921.53
2023-04-26T10:46:38.292Z,101921.53
2023-04-26T10:51:39.867Z,101909.69
2023-04-26T10:56:42.397Z,101909.06
2023-04-26T11:01:44.013Z,101909.97
2023-04-26T11:06:49.230Z,101914.59
2023-04-26T11:11:53.917Z,101916.75
2023-04-26T11:16:55.622Z,101915.47
2023-04-26T11:21:57.235Z,101921.19
2023-04-26T11:26:59.332Z,101924.28
2023-04-26T11:32:00.936Z,101925.81
2023-04-26T11:37:03.811Z,101927.47
2023-04-26T11:42:10.483Z,101926.81
2023-04-26T11:47:12.105Z,101921.00
2023-04-26T11:52:14.028Z,101936.03
2023-04-26T11:57:18.056Z,101926.06
2023-04-26T12:02:24.156Z,101921.69
2023-04-26T12:07:26.201Z,101933.63
2023-04-26T12:12:27.907Z,101928.53
2023-04-26T12:17:29.442Z,101922.84
2023-04-26T12:22:31.026Z,101926.41
2023-04-26T12:27:32.469Z,101917.69
2023-04-26T12:32:33.968Z,101919.84
2023-04-26T12:37:36.049Z,101925.19
2023-04-26T12:42:37.616Z,101916.34
2023-04-26T12:47:39.104Z,101921.22
2023-04-26T12:52:41.736Z,101911.56
2023-04-26T12:57:44.903Z,101913.91
2023-04-26T13:02:46.695Z,101907.31
2023-04-26T13:07:48.338Z,101907.88
2023-04-26T13:12:49.835Z,101918.03
2023-04-26T13:17:51.375Z,101910.53
2023-04-26T13:22:53.093Z,101911.25
2023-04-26T13:27:55.436Z,101922.63
2023-04-26T13:32:59.937Z,101925.94
2023-04-26T13:38:01.884Z,101915.44
2023-04-26T13:43:03.396Z,101924.38
2023-04-26T13:48:04.956Z,101916.34
2023-04-26T13:53:06.541Z,101925.50
2023-04-26T13:58:08.252Z,101926.75
2023-04-26T14:03:09.824Z,101926.69
2023-04-26T14:08:12.747Z,101924.81
2023-04-26T14:13:15.906Z,101918.72
2023-04-26T14:18:17.696Z,101924.72
2023-04-26T14:23:19.345Z,101924.31
2023-04-26T14:28:20.907Z,101924.06
2023-04-26T14:33:24.957Z,101929.56
2023-04-26T14:38:26.704Z,101928.25
2023-04-26T14:43:28.257Z,101918.72
2023-04-26T14:48:29.792Z,101914.81
2023-04-26T14:53:31.536Z,101913.56
2023-04-26T14:58:33.168Z,101913.66
2023-04-26T15:03:34.962Z,101903.38
2023-04-26T15:08:37.182Z,101897.59
2023-04-26T15:13:38.711Z,101908.34
2023-04-26T15:18:40.174Z,101905.41
2023-04-26T15:23:41.618Z,101900.09
2023-04-26T15:28:43.062Z,101893.09
2023-04-26T15:33:44.523Z,101891.13
2023-04-26T15:38:48.355Z,101901.25
2023-04-26T15:43:55.909Z,101892.72
2023-04-26T15:48:57.375Z,101898.00
2023-04-26T15:53:58.827Z,101897.25
2023-04-26T15:59:00.258Z,101895.94
2023-04-26T16:04:01.841Z,101898.88
2023-04-26T16:09:17.224Z,101899.03
2023-04-26T16:14:26.250Z,101909.91
2023-04-26T16:19:27.749Z,101897.00
2023-04-26T16:24:29.209Z,101902.16
2023-04-26T16:29:30.646Z,101911.91
2023-04-26T16:34:32.140Z,101901.13
2023-04-26T16:39:34.479Z,101915.13
2023-04-26T16:44:36.015Z,101918.00
2023-04-26T16:49:37.513Z,101917.88
2023-04-26T16:54:38.972Z,101915.16
2023-04-26T16:59:40.426Z,101922.88
2023-04-26T17:04:42.141Z,101918.69
2023-04-26T17:09:43.853Z,101929.16
2023-04-26T17:14:45.437Z,101931.69
2023-04-26T17:19:46.888Z,101931.53
2023-04-26T17:24:48.350Z,101926.38
2023-04-26T17:29:49.805Z,101918.34
2023-04-26T17:34:51.313Z,101918.19
2023-04-26T17:39:52.907Z,101921.72
2023-04-26T17:44:55.042Z,101936.41
2023-04-26T17:49:56.617Z,101936.94
2023-04-26T17:54:58.146Z,101937.69
2023-04-26T17:59:59.597Z,101937.38
2023-04-26T18:05:01.186Z,101939.97
2023-04-26T18:10:04.110Z,101939.06
2023-04-26T18:15:06.519Z,101941.16
2023-04-26T18:20:08.472Z,101945.47
2023-04-26T18:25:09.997Z,101945.47
2023-04-26T18:30:12.785Z,101953.59
2023-04-26T18:35:14.248Z,101953.38
2023-04-26T18:40:15.725Z,101954.09
2023-04-26T18:45:17.221Z,101962.72
2023-04-26T18:50:18.869Z,101962.00
2023-04-26T18:55:20.362Z,101964.75
2023-04-26T19:00:21.884Z,101972.06
2023-04-26T19:05:23.342Z,101969.97
2023-04-26T19:10:25.626Z,101966.94
2023-04-26T19:15:27.196Z,101975.28
2023-04-26T19:20:28.671Z,101974.34
2023-04-26T19:25:30.489Z,101990.94
2023-04-26T19:30:32.136Z,101990.00
2023-04-26T19:35:33.613Z,101988.16
2023-04-26T19:40:35.151Z,101994.69
2023-04-26T19:45:37.936Z,101988.03
2023-04-26T19:50:44.237Z,101990.53
2023-04-26T19:55:45.909Z,101994.34
2023-04-26T20:00:47.545Z,101993.47
2023-04-26T20:05:49.440Z,102001.09
2023-04-26T20:10:51.021Z,102006.25
2023-04-26T20:15:52.695Z,102002.19
2023-04-26T20:20:54.194Z,102010.28
2023-04-26T20:25:55.773Z,102009.16
2023-04-26T20:30:57.274Z,102024.00
2023-04-26T20:35:59.200Z,102027.50
2023-04-26T20:41:00.636Z,102025.72
2023-04-26T20:46:02.142Z,102026.09
2023-04-26T20:51:03.640Z,102021.09
2023-04-26T20:56:05.261Z,102033.13
2023-04-26T21:01:07.413Z,102039.59
2023-04-26T21:06:09.126Z,102037.44
2023-04-26T21:11:10.745Z,102038.03
2023-04-26T21:16:12.352Z,102039.47
2023-04-26T21:21:13.844Z,102048.81
2023-04-26T21:26:15.513Z,102044.16
2023-04-26T21:31:17.119Z,102046.47
2023-04-26T21:36:18.691Z,102045.97
2023-04-26T21:41:20.167Z,102047.13
2023-04-26T21:46:21.683Z,102052.66
2023-04-26T21:51:23.243Z,102052.31
2023-04-26T21:56:24.941Z,102050.81
2023-04-26T22:01:26.794Z,102053.25
2023-04-26T22:06:28.988Z,102054.47
2023-04-26T22:11:30.464Z,102051.56
2023-04-26T22:16:32.095Z,102061.28
2023-04-26T22:21:33.618Z,102052.25
2023-04-26T22:26:35.136Z,102055.44
2023-04-26T22:31:36.654Z,102056.25
2023-04-26T22:36:39.136Z,102060.31
2023-04-26T22:41:40.627Z,102066.66
2023-04-26T22:46:42.106Z,102063.72
2023-04-26T22:51:50.615Z,102063.88
2023-04-26T22:56:59.178Z,102069.59
2023-04-26T23:02:01.761Z,102062.56
2023-04-26T23:07:03.265Z,102066.03
2023-04-26T23:12:05.518Z,102070.59
2023-04-26T23:17:07.088Z,102076.66
2023-04-26T23:22:08.741Z,102077.34
2023-04-26T23:27:10.206Z,102078.84
2023-04-26T23:32:11.679Z,102099.69
2023-04-26T23:37:13.130Z,102093.31
2023-04-26T23:42:14.621Z,102092.16
2023-04-26T23:47:16.177Z,102103.78
2023-04-26T23:52:17.650Z,102107.63
2023-04-26T23:57:19.117Z,102106.63
